Time;durP1;ratioP1;P1;durP2;ratioP2;P2;SDS_P1;SDS_P2;PMS_P1;PMS_P2;Temp;Humidity;BMP_temperature;BMP_pressure;BME280_temperature;BME280_humidity;BME280_pressure;Samples;Min_cycle;Max_cycle;Signal;HPM_P1;HPM_P2
2022/08/20 00:00:13;;;;;;;26.83;7.20;;;15.40;88.50;;;;;;5065094;28;20025;-70
2022/08/20 00:02:51;;;;;;;19.60;7.22;;;15.40;89.00;;;;;;5067812;28;20024;-70
2022/08/20 00:05:23;;;;;;;30.60;6.95;;;15.40;89.50;;;;;;5077951;28;20150;-68
2022/08/20 00:07:50;;;;;;;29.58;5.70;;;15.40;89.90;;;;;;5066122;28;20025;-69
2022/08/20 00:10:16;;;;;;;24.27;5.95;;;15.40;89.50;;;;;;5067751;28;20042;-70
2022/08/20 00:12:45;;;;;;;18.58;4.75;;;15.40;89.30;;;;;;5067759;28;21083;-69
2022/08/20 00:15:13;;;;;;;19.05;5.03;;;15.40;89.30;;;;;;5067359;28;20025;-71
2022/08/20 00:17:40;;;;;;;21.33;5.45;;;15.40;88.30;;;;;;5062981;28;20047;-70
2022/08/20 00:20:10;;;;;;;22.33;5.50;;;15.30;87.70;;;;;;5065190;28;20020;-68
2022/08/20 00:22:38;;;;;;;22.05;7.10;;;15.30;87.10;;;;;;5066281;28;20021;-70
2022/08/20 00:25:05;;;;;;;17.58;7.45;;;15.30;86.50;;;;;;5068292;28;20024;-72
2022/08/20 00:27:32;;;;;;;21.15;6.28;;;15.30;86.30;;;;;;5068240;28;20105;-72
2022/08/20 00:29:59;;;;;;;20.95;6.13;;;15.30;86.10;;;;;;5066610;28;20081;-72
2022/08/20 00:33:11;;;;;;;24.60;5.68;;;15.30;85.00;;;;;;5060539;28;20369;-68
2022/08/20 00:36:17;;;;;;;14.70;5.10;;;15.20;84.10;;;;;;5067059;28;20033;-70
2022/08/20 00:39:23;;;;;;;12.73;3.78;;;15.20;81.40;;;;;;5067691;28;20376;-71
2022/08/20 00:42:29;;;;;;;14.18;5.38;;;15.20;80.90;;;;;;5063378;28;20553;-68
2022/08/20 00:44:56;;;;;;;27.13;8.13;;;15.20;80.80;;;;;;5063640;28;20372;-69
2022/08/20 00:48:02;;;;;;;16.50;4.93;;;15.20;80.80;;;;;;5064832;28;20379;-70
2022/08/20 00:51:12;;;;;;;19.52;8.27;;;15.20;80.80;;;;;;5064958;28;20016;-68
2022/08/20 00:54:21;;;;;;;24.98;5.03;;;15.20;81.00;;;;;;5062119;28;20024;-70
2022/08/20 00:56:53;;;;;;;20.52;6.03;;;15.20;80.60;;;;;;5038815;28;20152;-68
2022/08/20 00:59:24;;;;;;;15.40;5.13;;;15.20;80.20;;;;;;5068614;28;20379;-69
2022/08/20 01:01:51;;;;;;;17.98;4.70;;;15.20;80.30;;;;;;5066574;28;20099;-70
2022/08/20 01:04:56;;;;;;;23.25;6.68;;;15.20;80.60;;;;;;5065213;28;20056;-67
2022/08/20 01:08:02;;;;;;;22.67;7.43;;;15.20;81.60;;;;;;5082202;28;20487;-70
2022/08/20 01:10:52;;;;;;;19.27;4.05;;;15.30;83.30;;;;;;5066187;28;20074;-69
2022/08/20 01:13:59;;;;;;;15.68;4.10;;;15.30;84.30;;;;;;5069095;28;20083;-69
2022/08/20 01:17:05;;;;;;;23.05;6.78;;;15.20;85.10;;;;;;5065126;28;20072;-73
2022/08/20 01:19:40;;;;;;;15.75;4.50;;;15.30;85.30;;;;;;5066159;28;20033;-71
2022/08/20 01:25:03;;;;;;;17.35;4.82;;;15.20;85.60;;;;;;5062809;28;20043;-69
2022/08/20 01:27:31;;;;;;;17.65;5.35;;;15.20;85.80;;;;;;5067327;28;20032;-69
2022/08/20 01:29:58;;;;;;;19.40;4.78;;;15.20;86.10;;;;;;5062795;28;20032;-71
2022/08/20 01:32:24;;;;;;;17.45;4.30;;;15.20;86.10;;;;;;5063801;28;20086;-70
2022/08/20 01:34:51;;;;;;;16.42;4.88;;;15.20;86.00;;;;;;5066780;28;20028;-71
2022/08/20 01:37:17;;;;;;;16.77;4.80;;;15.20;86.00;;;;;;5066244;28;20017;-68
2022/08/20 01:39:44;;;;;;;16.10;5.07;;;15.20;85.90;;;;;;5066237;28;20025;-68
2022/08/20 01:42:33;;;;;;;26.98;6.30;;;15.20;86.00;;;;;;5065689;28;20391;-71
2022/08/20 01:45:39;;;;;;;21.25;5.10;;;15.20;86.10;;;;;;5065506;28;20055;-70
2022/08/20 01:48:06;;;;;;;24.42;6.88;;;15.20;86.10;;;;;;5064060;28;20100;-70
2022/08/20 01:50:35;;;;;;;22.30;6.22;;;15.20;86.30;;;;;;5066386;28;20055;-68
2022/08/20 01:53:17;;;;;;;17.33;5.93;;;15.30;86.80;;;;;;5060425;28;20610;-69
2022/08/20 01:55:44;;;;;;;20.10;6.45;;;15.20;87.10;;;;;;5065327;28;20105;-71
2022/08/20 01:58:11;;;;;;;23.20;5.65;;;15.20;87.10;;;;;;5063734;28;20290;-67
2022/08/20 02:00:38;;;;;;;16.15;3.90;;;15.20;87.10;;;;;;5062324;28;20017;-68
2022/08/20 02:03:04;;;;;;;18.33;6.07;;;15.20;87.00;;;;;;5058568;28;20032;-70
2022/08/20 02:05:33;;;;;;;18.73;4.60;;;15.20;86.90;;;;;;5067109;28;20035;-70
2022/08/20 02:07:59;;;;;;;11.50;3.45;;;15.20;86.80;;;;;;5063494;28;20024;-71
2022/08/20 02:10:26;;;;;;;8.63;4.05;;;15.20;86.80;;;;;;5067277;28;20108;-72
2022/08/20 02:12:53;;;;;;;14.00;4.85;;;15.10;86.80;;;;;;5059063;28;20118;-71
2022/08/20 02:15:19;;;;;;;16.98;4.80;;;15.10;86.80;;;;;;5067105;28;20027;-68
2022/08/20 02:17:47;;;;;;;14.68;3.33;;;15.10;86.90;;;;;;5061024;28;20475;-67
2022/08/20 02:20:22;;;;;;;14.77;3.33;;;15.10;86.80;;;;;;5062738;28;20045;-67
2022/08/20 02:22:55;;;;;;;12.43;4.00;;;15.10;86.70;;;;;;5066520;28;20104;-71
2022/08/20 02:25:26;;;;;;;13.60;4.70;;;15.00;86.50;;;;;;5063330;28;20122;-72
2022/08/20 02:27:54;;;;;;;19.30;5.60;;;15.00;86.40;;;;;;5063253;28;20547;-67
2022/08/20 02:30:28;;;;;;;11.88;3.10;;;15.00;86.30;;;;;;5063906;28;20032;-68
2022/08/20 02:32:57;;;;;;;11.82;4.30;;;15.00;86.30;;;;;;5066680;28;20032;-71
2022/08/20 02:35:25;;;;;;;12.70;5.30;;;14.90;86.10;;;;;;5062600;28;20032;-70
2022/08/20 02:37:52;;;;;;;11.98;3.75;;;14.90;86.00;;;;;;5065276;28;20077;-69
2022/08/20 02:40:22;;;;;;;11.13;3.47;;;14.90;85.90;;;;;;5062316;28;20036;-71
2022/08/20 02:42:48;;;;;;;13.73;3.72;;;14.90;86.00;;;;;;5063627;28;20031;-68
2022/08/20 02:45:17;;;;;;;16.20;4.43;;;14.90;85.90;;;;;;5065557;28;20422;-70
2022/08/20 02:47:45;;;;;;;12.20;4.28;;;14.90;85.90;;;;;;5057754;28;20091;-71
2022/08/20 02:50:14;;;;;;;10.25;4.53;;;14.90;85.90;;;;;;5063708;28;20024;-72
2022/08/20 02:52:42;;;;;;;9.15;3.25;;;14.90;86.00;;;;;;5059902;28;20025;-72
2022/08/20 02:55:09;;;;;;;11.98;4.13;;;14.90;86.10;;;;;;5063965;28;20039;-68
2022/08/20 02:57:37;;;;;;;10.40;3.50;;;14.90;86.70;;;;;;5063223;28;20048;-69
2022/08/20 03:00:22;;;;;;;13.70;4.22;;;14.90;86.10;;;;;;5061731;28;20021;-71
2022/08/20 03:02:49;;;;;;;10.83;2.97;;;14.90;86.20;;;;;;5065507;28;20025;-71
2022/08/20 03:05:15;;;;;;;18.17;4.53;;;14.90;86.30;;;;;;5066023;28;20075;-68
2022/08/20 03:07:44;;;;;;;10.75;3.60;;;14.90;86.50;;;;;;5063993;28;20074;-68
2022/08/20 03:10:12;;;;;;;9.77;3.38;;;14.90;86.90;;;;;;5064931;28;20017;-68
2022/08/20 03:12:39;;;;;;;9.77;1.98;;;14.90;87.10;;;;;;5062076;28;20062;-72
2022/08/20 03:15:08;;;;;;;12.25;3.38;;;14.90;87.00;;;;;;5063271;28;20361;-67
2022/08/20 03:17:35;;;;;;;11.00;3.22;;;14.90;87.00;;;;;;5061430;28;20021;-68
2022/08/20 03:20:03;;;;;;;5.82;2.30;;;14.90;86.80;;;;;;5065086;28;20037;-71
2022/08/20 03:22:30;;;;;;;14.35;3.13;;;14.90;86.80;;;;;;5059955;28;20111;-72
2022/08/20 03:24:56;;;;;;;11.43;3.83;;;14.90;86.60;;;;;;5065989;28;20029;-70
2022/08/20 03:27:23;;;;;;;27.42;5.63;;;14.90;86.60;;;;;;5067367;28;20148;-68
2022/08/20 03:29:49;;;;;;;11.88;5.75;;;14.90;86.70;;;;;;5063493;28;20103;-70
2022/08/20 03:32:16;;;;;;;24.75;8.00;;;14.90;87.20;;;;;;5064633;28;20044;-67
2022/08/20 03:34:43;;;;;;;13.13;5.45;;;14.90;87.80;;;;;;5064259;28;20073;-67
2022/08/20 03:37:10;;;;;;;16.65;4.45;;;15.00;88.20;;;;;;5070685;28;21484;-68
2022/08/20 03:39:37;;;;;;;15.70;5.97;;;14.90;88.30;;;;;;5065585;28;20113;-67
2022/08/20 03:42:05;;;;;;;19.83;3.85;;;15.00;88.60;;;;;;5066355;28;20432;-71
2022/08/20 03:44:32;;;;;;;20.73;3.13;;;14.90;88.60;;;;;;5064234;28;20403;-68
2022/08/20 03:46:58;;;;;;;10.07;3.25;;;15.00;88.80;;;;;;5067477;28;20032;-66
2022/08/20 03:49:25;;;;;;;13.80;2.67;;;15.00;89.90;;;;;;5065704;28;20387;-67
2022/08/20 03:51:52;;;;;;;12.45;3.38;;;15.00;88.90;;;;;;5066624;28;20434;-68
2022/08/20 03:54:18;;;;;;;14.57;3.70;;;15.00;88.10;;;;;;5067278;28;20028;-67
2022/08/20 03:56:45;;;;;;;9.60;2.42;;;14.90;87.70;;;;;;5065795;28;20024;-69
2022/08/20 03:59:11;;;;;;;15.65;3.20;;;14.90;87.30;;;;;;5068120;28;20027;-67
2022/08/20 04:01:38;;;;;;;13.50;3.95;;;14.90;87.10;;;;;;5065320;28;20059;-68
2022/08/20 04:04:04;;;;;;;14.02;3.53;;;14.80;87.00;;;;;;5071207;28;20004;-67
2022/08/20 04:06:31;;;;;;;9.52;4.65;;;14.80;87.20;;;;;;5066977;28;20025;-69
2022/08/20 04:08:57;;;;;;;9.13;3.70;;;14.90;87.40;;;;;;5068579;28;20046;-67
2022/08/20 04:11:24;;;;;;;24.80;3.67;;;14.80;87.50;;;;;;5069431;28;20193;-68
2022/08/20 04:13:51;;;;;;;17.83;3.90;;;14.80;87.50;;;;;;5063944;28;20418;-69
2022/08/20 04:16:17;;;;;;;26.02;7.05;;;14.90;87.70;;;;;;5068236;28;20017;-67
2022/08/20 04:18:44;;;;;;;36.05;15.50;;;14.80;88.00;;;;;;5068101;28;20056;-67
2022/08/20 04:21:11;;;;;;;26.70;14.07;;;14.80;89.20;;;;;;5065782;28;20116;-68
2022/08/20 04:23:47;;;;;;;23.90;10.45;;;14.80;88.70;;;;;;5062664;28;20021;-68
2022/08/20 04:26:15;;;;;;;11.43;5.45;;;14.80;88.50;;;;;;5064541;28;20016;-67
2022/08/20 04:28:41;;;;;;;6.85;3.72;;;14.80;88.40;;;;;;5069715;28;20021;-66
2022/08/20 04:31:08;;;;;;;14.23;4.25;;;14.80;88.50;;;;;;5064329;28;20044;-67
2022/08/20 04:33:34;;;;;;;8.80;2.65;;;14.80;88.60;;;;;;5063668;28;20055;-67
2022/08/20 04:36:02;;;;;;;19.70;2.95;;;14.80;88.60;;;;;;5063668;28;20025;-67
2022/08/20 04:38:30;;;;;;;7.28;3.00;;;14.80;88.60;;;;;;5069952;28;20020;-67
2022/08/20 04:40:59;;;;;;;7.55;2.65;;;14.80;88.70;;;;;;5066397;28;20025;-67
2022/08/20 04:43:34;;;;;;;9.05;3.38;;;14.80;88.80;;;;;;5062242;28;20483;-74
2022/08/20 04:46:24;;;;;;;9.73;2.53;;;14.80;88.70;;;;;;5056247;28;20035;-72
2022/08/20 04:48:56;;;;;;;13.75;5.20;;;14.70;88.50;;;;;;5065761;28;20069;-67
2022/08/20 04:51:25;;;;;;;13.73;6.72;;;14.70;88.60;;;;;;5064907;28;20075;-69
2022/08/20 04:54:08;;;;;;;12.00;5.50;;;14.70;88.60;;;;;;5064577;28;20582;-72
2022/08/20 04:56:38;;;;;;;7.75;2.70;;;14.70;88.50;;;;;;5065711;28;20601;-70
2022/08/20 04:59:08;;;;;;;7.50;3.38;;;14.70;88.30;;;;;;5068622;28;20476;-68
2022/08/20 05:01:35;;;;;;;16.65;10.75;;;14.60;88.20;;;;;;5066444;28;20029;-67
2022/08/20 05:04:12;;;;;;;46.15;31.17;;;14.60;88.50;;;;;;5065123;28;20029;-69
2022/08/20 05:06:44;;;;;;;32.92;21.10;;;14.60;88.40;;;;;;5060367;28;20032;-72
2022/08/20 05:09:11;;;;;;;21.23;11.77;;;14.60;88.20;;;;;;5068011;28;20024;-70
2022/08/20 05:12:03;;;;;;;12.80;8.32;;;14.60;88.10;;;;;;5065798;28;20061;-74
2022/08/20 05:14:32;;;;;;;18.05;6.03;;;14.60;87.80;;;;;;5063147;28;20021;-71
2022/08/20 05:17:08;;;;;;;14.40;4.38;;;14.60;87.70;;;;;;5064002;28;20479;-67
2022/08/20 05:19:47;;;;;;;7.88;3.17;;;14.50;87.40;;;;;;5065611;28;20056;-74
2022/08/20 05:22:17;;;;;;;8.25;4.47;;;14.50;87.20;;;;;;5066188;28;20503;-72
2022/08/20 05:24:48;;;;;;;7.50;3.15;;;14.50;87.10;;;;;;5065339;28;20535;-74
2022/08/20 05:27:18;;;;;;;6.40;1.80;;;14.50;86.80;;;;;;5063532;28;20066;-67
2022/08/20 05:29:45;;;;;;;6.38;1.75;;;14.50;86.60;;;;;;5066983;28;20036;-68
2022/08/20 05:32:16;;;;;;;5.78;2.33;;;14.50;86.00;;;;;;5061740;28;20048;-73
2022/08/20 05:34:43;;;;;;;9.98;2.70;;;14.50;85.70;;;;;;5063697;28;20372;-73
2022/08/20 05:37:10;;;;;;;5.15;2.33;;;14.50;85.50;;;;;;5064934;28;20024;-74
2022/08/20 05:39:36;;;;;;;5.28;2.08;;;14.50;85.30;;;;;;5067210;28;20081;-71
2022/08/20 05:42:03;;;;;;;9.27;3.38;;;14.50;85.20;;;;;;5067074;28;20021;-66
2022/08/20 05:44:30;;;;;;;14.95;2.47;;;14.50;85.10;;;;;;5062720;28;20021;-66
2022/08/20 05:46:56;;;;;;;9.88;2.97;;;14.50;85.10;;;;;;5065907;28;20028;-69
2022/08/20 05:49:23;;;;;;;6.72;3.08;;;14.40;84.90;;;;;;5063554;28;20016;-70
2022/08/20 05:51:52;;;;;;;4.82;2.63;;;14.40;84.90;;;;;;5063696;28;20028;-69
2022/08/20 05:54:21;;;;;;;6.43;1.90;;;14.40;84.80;;;;;;5064779;28;20060;-70
2022/08/20 05:56:47;;;;;;;4.15;1.83;;;14.40;85.50;;;;;;5064740;28;20021;-71
2022/08/20 05:59:14;;;;;;;5.35;1.70;;;14.40;84.80;;;;;;5067576;28;20020;-67
2022/08/20 06:01:41;;;;;;;11.40;2.15;;;14.40;84.70;;;;;;5061449;28;20553;-66
2022/08/20 06:04:25;;;;;;;28.05;16.42;;;14.40;84.80;;;;;;5065401;28;20037;-70
2022/08/20 06:06:55;;;;;;;31.10;14.27;;;14.40;85.00;;;;;;5065503;28;20074;-70
2022/08/20 06:09:25;;;;;;;16.63;8.52;;;14.40;85.20;;;;;;5063405;28;20028;-71
2022/08/20 06:11:51;;;;;;;8.88;4.78;;;14.40;85.30;;;;;;5065861;28;20033;-69
2022/08/20 06:14:19;;;;;;;7.82;2.97;;;14.40;85.40;;;;;;5065354;28;20039;-69
2022/08/20 06:16:46;;;;;;;6.93;2.88;;;14.50;85.50;;;;;;5065304;28;20113;-70
2022/08/20 06:19:13;;;;;;;9.05;3.45;;;14.50;85.70;;;;;;5064254;28;20048;-71
2022/08/20 06:21:39;;;;;;;6.88;2.00;;;14.50;85.90;;;;;;5071761;28;20037;-71
2022/08/20 06:24:07;;;;;;;9.30;2.88;;;14.50;86.00;;;;;;5064102;28;20427;-69
2022/08/20 06:26:34;;;;;;;9.63;3.67;;;14.50;86.10;;;;;;5060562;28;20021;-69
2022/08/20 06:29:02;;;;;;;12.45;6.65;;;14.50;86.00;;;;;;5063312;28;20025;-70
2022/08/20 06:31:28;;;;;;;15.50;4.88;;;14.50;85.80;;;;;;5067175;28;20128;-69
2022/08/20 06:33:55;;;;;;;8.93;3.63;;;14.50;85.60;;;;;;5065442;28;20044;-69
2022/08/20 06:36:23;;;;;;;11.38;4.00;;;14.50;85.50;;;;;;5066425;28;20017;-69
2022/08/20 06:38:50;;;;;;;9.15;3.28;;;14.60;85.50;;;;;;5064536;28;20056;-69
2022/08/20 06:41:16;;;;;;;13.80;3.00;;;14.60;85.50;;;;;;5062168;28;20542;-69
2022/08/20 06:43:43;;;;;;;11.98;4.15;;;14.60;85.60;;;;;;5063305;28;20059;-69
2022/08/20 06:46:09;;;;;;;8.40;2.53;;;14.60;85.70;;;;;;5063621;28;20064;-69
2022/08/20 06:48:36;;;;;;;7.78;2.05;;;14.60;85.70;;;;;;5056522;28;20021;-69
2022/08/20 06:51:05;;;;;;;9.18;2.33;;;14.60;85.80;;;;;;5062472;28;20029;-69
2022/08/20 06:53:32;;;;;;;10.40;2.67;;;14.60;85.90;;;;;;5061839;28;20501;-69
2022/08/20 06:55:58;;;;;;;7.70;2.80;;;14.60;85.90;;;;;;5065821;28;20486;-68
2022/08/20 06:58:25;;;;;;;9.55;3.80;;;14.70;86.00;;;;;;5064276;28;20027;-69
2022/08/20 07:00:52;;;;;;;6.45;2.35;;;14.70;86.00;;;;;;5066829;28;20032;-69
2022/08/20 07:03:19;;;;;;;10.55;2.70;;;14.70;86.10;;;;;;5064882;28;20051;-69
2022/08/20 07:05:45;;;;;;;6.30;2.67;;;14.70;86.10;;;;;;5062365;28;20033;-69
2022/08/20 07:08:17;;;;;;;11.13;3.55;;;14.70;86.20;;;;;;5064400;28;20020;-68
2022/08/20 07:10:44;;;;;;;8.50;2.53;;;14.70;86.20;;;;;;5064718;28;20107;-69
2022/08/20 07:13:14;;;;;;;9.50;3.78;;;14.80;86.20;;;;;;5072170;28;20460;-69
2022/08/20 07:15:40;;;;;;;11.88;3.50;;;14.80;86.10;;;;;;5067399;28;20017;-69
2022/08/20 07:18:07;;;;;;;8.35;3.83;;;14.80;86.10;;;;;;5068174;28;20029;-69
2022/08/20 07:20:35;;;;;;;10.07;3.00;;;14.90;86.10;;;;;;5068417;28;20464;-70
2022/08/20 07:23:02;;;;;;;7.93;2.20;;;14.90;86.00;;;;;;5066362;28;20068;-69
2022/08/20 07:25:32;;;;;;;24.23;3.97;;;14.90;85.90;;;;;;5067430;28;20031;-69
2022/08/20 07:28:08;;;;;;;5.78;3.17;;;15.00;85.90;;;;;;5067732;28;20025;-69
2022/08/20 07:33:20;;;;;;;11.05;2.22;;;15.00;85.70;;;;;;5070368;28;20501;-69
2022/08/20 07:35:47;;;;;;;9.23;2.70;;;15.00;85.30;;;;;;5067647;28;20488;-69
2022/08/20 07:38:23;;;;;;;6.07;2.15;;;15.10;85.10;;;;;;5067424;28;20085;-69
2022/08/20 07:40:55;;;;;;;8.85;2.58;;;15.00;84.80;;;;;;5068029;28;20558;-69
2022/08/20 07:43:22;;;;;;;8.25;2.10;;;15.10;84.90;;;;;;5070743;28;20033;-70
2022/08/20 07:45:57;;;;;;;9.45;2.75;;;15.10;84.90;;;;;;5067970;28;20024;-70
2022/08/20 07:48:33;;;;;;;6.80;2.90;;;15.10;84.90;;;;;;5081680;28;20380;-70
2022/08/20 07:51:03;;;;;;;6.80;2.20;;;15.10;84.80;;;;;;5067699;28;20040;-70
2022/08/20 07:53:32;;;;;;;7.07;1.92;;;15.10;84.90;;;;;;5068416;28;20033;-70
2022/08/20 07:55:59;;;;;;;10.48;2.05;;;15.10;85.00;;;;;;5067789;28;20383;-70
2022/08/20 07:58:25;;;;;;;11.77;3.47;;;15.10;85.20;;;;;;5069396;28;20025;-70
2022/08/20 08:00:52;;;;;;;9.95;2.50;;;15.10;85.50;;;;;;5068120;28;20104;-70
2022/08/20 08:03:19;;;;;;;12.55;2.78;;;15.20;85.60;;;;;;5067381;28;20498;-70
2022/08/20 08:05:48;;;;;;;6.65;1.90;;;15.20;85.40;;;;;;5068081;28;20033;-71
2022/08/20 08:08:20;;;;;;;10.93;2.92;;;15.20;85.30;;;;;;5064907;28;20063;-71
2022/08/20 08:10:49;;;;;;;21.42;4.38;;;15.20;85.50;;;;;;5067983;28;20103;-69
2022/08/20 08:13:16;;;;;;;6.78;2.65;;;15.30;85.90;;;;;;5067388;28;20027;-69
2022/08/20 08:15:47;;;;;;;10.93;2.63;;;15.30;85.80;;;;;;5066493;28;20090;-70
2022/08/20 08:18:20;;;;;;;13.05;2.90;;;15.40;85.60;;;;;;5068130;28;20021;-70
2022/08/20 08:20:51;;;;;;;21.58;3.90;;;15.40;85.50;;;;;;5063073;28;20055;-70
2022/08/20 08:23:19;;;;;;;15.95;4.20;;;15.50;85.10;;;;;;5062167;28;20491;-70
2022/08/20 08:25:46;;;;;;;15.13;3.50;;;15.50;84.60;;;;;;5064460;28;20025;-70
2022/08/20 08:28:13;;;;;;;9.90;3.05;;;15.60;84.30;;;;;;5064283;28;20025;-70
2022/08/20 08:30:41;;;;;;;14.07;2.47;;;15.60;83.80;;;;;;5069376;28;20019;-70
2022/08/20 08:33:29;;;;;;;16.13;3.33;;;15.60;83.30;;;;;;5068189;28;20039;-70
2022/08/20 08:36:10;;;;;;;17.02;2.35;;;15.70;83.10;;;;;;5065710;28;20033;-72
2022/08/20 08:38:39;;;;;;;10.35;2.17;;;15.80;82.60;;;;;;5065295;28;20055;-70
2022/08/20 08:41:30;;;;;;;9.35;2.58;;;15.80;82.50;;;;;;5066139;28;20025;-70
2022/08/20 08:44:13;;;;;;;9.60;2.90;;;15.80;81.70;;;;;;5066222;28;20028;-70
2022/08/20 08:46:43;;;;;;;8.30;3.55;;;15.80;81.00;;;;;;5061715;28;20072;-69
2022/08/20 08:49:15;;;;;;;12.23;3.53;;;15.80;80.90;;;;;;5064070;28;20066;-71
2022/08/20 08:51:49;;;;;;;5.45;2.25;;;15.80;80.40;;;;;;5069195;28;20074;-71
2022/08/20 08:54:19;;;;;;;17.38;4.88;;;15.80;80.10;;;;;;5064777;28;20017;-68
2022/08/20 08:56:46;;;;;;;7.20;2.00;;;15.80;80.00;;;;;;5065757;28;20021;-72
2022/08/20 08:59:12;;;;;;;4.90;1.65;;;15.80;79.50;;;;;;5064626;28;20035;-72
2022/08/20 09:01:45;;;;;;;5.82;2.08;;;15.80;79.20;;;;;;5064529;28;20035;-71
2022/08/20 09:04:17;;;;;;;5.18;2.25;;;15.80;78.60;;;;;;5063199;28;20013;-71
2022/08/20 09:06:44;;;;;;;13.35;2.95;;;15.80;78.00;;;;;;5065129;28;20371;-70
2022/08/20 09:09:20;;;;;;;9.82;3.28;;;15.80;77.90;;;;;;5066306;28;20147;-71
2022/08/20 09:11:52;;;;;;;9.32;3.83;;;15.80;78.20;;;;;;5068316;28;20058;-70
2022/08/20 09:14:20;;;;;;;20.35;4.55;;;15.80;78.50;;;;;;5067936;28;20028;-69
2022/08/20 09:16:47;;;;;;;10.05;3.17;;;15.80;78.50;;;;;;5064065;28;20013;-69
2022/08/20 09:19:13;;;;;;;11.45;2.28;;;15.80;78.20;;;;;;5066183;28;20025;-71
2022/08/20 09:21:40;;;;;;;9.85;3.28;;;15.90;78.60;;;;;;5065489;28;20499;-69
2022/08/20 09:24:07;;;;;;;9.13;2.75;;;15.90;77.50;;;;;;5064628;28;20020;-72
2022/08/20 09:26:33;;;;;;;13.82;2.63;;;15.90;77.00;;;;;;5062249;28;20612;-70
2022/08/20 09:29:00;;;;;;;7.78;2.15;;;16.00;77.30;;;;;;5067433;28;20090;-70
2022/08/20 09:31:26;;;;;;;11.07;2.72;;;16.10;77.60;;;;;;5065484;28;20542;-74
2022/08/20 09:33:53;;;;;;;13.93;3.00;;;16.20;77.90;;;;;;5066143;28;20048;-75
2022/08/20 09:36:19;;;;;;;6.40;2.40;;;16.30;77.80;;;;;;5067534;28;20099;-71
2022/08/20 09:38:46;;;;;;;7.05;2.28;;;16.40;76.90;;;;;;5067182;28;20028;-70
2022/08/20 09:41:12;;;;;;;10.75;2.80;;;16.40;76.30;;;;;;5068101;28;20104;-69
2022/08/20 09:43:39;;;;;;;9.18;2.90;;;16.40;75.50;;;;;;5067226;28;20043;-71
2022/08/20 09:46:05;;;;;;;13.00;2.95;;;16.40;74.70;;;;;;5067998;28;20569;-71
2022/08/20 09:48:32;;;;;;;11.35;2.15;;;16.40;74.40;;;;;;5063967;28;20021;-72
2022/08/20 09:50:59;;;;;;;16.88;2.95;;;16.40;74.30;;;;;;5064134;28;20045;-69
2022/08/20 09:53:25;;;;;;;23.48;4.18;;;16.40;74.70;;;;;;5062904;28;20407;-72
2022/08/20 09:55:54;;;;;;;23.48;8.57;;;16.40;75.30;;;;;;5064488;28;20044;-69
2022/08/20 09:58:35;;;;;;;23.48;5.28;;;16.40;75.70;;;;;;5065992;28;20024;-70
2022/08/20 10:01:09;;;;;;;16.50;5.10;;;16.40;75.30;;;;;;5060621;28;20054;-70
2022/08/20 10:03:36;;;;;;;12.80;4.88;;;16.40;75.20;;;;;;5065004;28;20025;-69
2022/08/20 10:06:02;;;;;;;10.88;4.05;;;16.40;75.10;;;;;;5065825;28;20028;-69
2022/08/20 10:08:29;;;;;;;13.27;4.45;;;16.40;74.90;;;;;;5065970;28;20483;-69
2022/08/20 10:10:55;;;;;;;9.55;3.97;;;16.40;74.70;;;;;;5069999;28;20017;-69
2022/08/20 10:13:22;;;;;;;17.55;3.75;;;16.40;74.40;;;;;;5071629;28;20033;-71
2022/08/20 10:15:48;;;;;;;14.90;3.47;;;16.40;74.60;;;;;;5064395;28;20111;-72
2022/08/20 10:18:15;;;;;;;12.70;2.83;;;16.40;74.60;;;;;;5064567;28;20028;-70
2022/08/20 10:20:42;;;;;;;7.18;3.38;;;16.40;74.20;;;;;;5065582;28;20067;-69
2022/08/20 10:23:09;;;;;;;14.95;3.55;;;16.40;74.30;;;;;;5063568;28;20024;-71
2022/08/20 10:25:36;;;;;;;11.55;2.92;;;16.40;73.90;;;;;;5072162;28;20020;-70
2022/08/20 10:28:03;;;;;;;8.30;2.20;;;16.50;72.50;;;;;;5063207;28;20024;-73
2022/08/20 10:30:29;;;;;;;9.45;2.78;;;16.60;73.10;;;;;;5064560;28;20057;-69
2022/08/20 10:32:56;;;;;;;11.60;2.60;;;16.70;73.40;;;;;;5066132;28;20050;-70
2022/08/20 10:35:23;;;;;;;19.05;3.53;;;16.70;73.50;;;;;;5066673;28;20361;-69
2022/08/20 10:37:49;;;;;;;8.15;3.15;;;16.80;73.10;;;;;;5065721;28;20050;-70
2022/08/20 10:40:16;;;;;;;8.38;2.65;;;16.80;71.90;;;;;;5065304;28;20092;-68
2022/08/20 10:42:43;;;;;;;5.18;2.17;;;16.90;71.50;;;;;;5062625;28;20023;-70
2022/08/20 10:45:12;;;;;;;10.93;3.15;;;16.90;71.50;;;;;;5070406;28;20019;-68
2022/08/20 10:47:39;;;;;;;10.95;2.90;;;17.00;71.50;;;;;;5062944;28;20515;-68
2022/08/20 10:50:08;;;;;;;5.32;2.33;;;17.10;71.50;;;;;;5070445;28;20066;-69
2022/08/20 10:52:35;;;;;;;10.77;2.75;;;17.10;71.50;;;;;;5066424;28;20059;-68
2022/08/20 10:55:03;;;;;;;8.88;2.15;;;17.20;71.10;;;;;;5068176;28;20046;-68
2022/08/20 10:57:32;;;;;;;8.50;3.42;;;17.30;71.00;;;;;;5068689;28;20028;-68
2022/08/20 10:59:59;;;;;;;7.13;1.90;;;17.40;70.70;;;;;;5068925;28;20024;-69
2022/08/20 11:02:27;;;;;;;10.35;2.28;;;17.40;70.00;;;;;;5067237;28;20036;-68
2022/08/20 11:04:54;;;;;;;7.10;3.25;;;17.50;69.50;;;;;;5069224;28;20017;-70
2022/08/20 11:07:30;;;;;;;6.78;1.88;;;17.50;68.80;;;;;;5071093;28;20103;-69
2022/08/20 11:09:58;;;;;;;10.93;2.42;;;17.50;68.40;;;;;;5072695;28;20017;-69
2022/08/20 11:12:24;;;;;;;6.78;2.53;;;17.60;67.30;;;;;;5066242;28;20033;-67
2022/08/20 11:14:52;;;;;;;10.65;3.85;;;17.60;65.60;;;;;;5066971;28;20133;-71
2022/08/20 11:17:32;;;;;;;9.27;4.72;;;17.70;65.90;;;;;;5068199;28;20035;-68
2022/08/20 11:20:00;;;;;;;9.70;3.63;;;17.80;65.90;;;;;;5069786;28;20025;-69
2022/08/20 11:22:27;;;;;;;9.68;3.53;;;17.90;64.40;;;;;;5069582;28;20069;-67
2022/08/20 11:24:54;;;;;;;19.25;3.58;;;17.90;63.90;;;;;;5067551;28;20639;-68
2022/08/20 11:27:31;;;;;;;7.35;2.70;;;17.80;63.20;;;;;;5066271;28;20103;-70
2022/08/20 11:29:57;;;;;;;11.85;2.60;;;17.80;62.30;;;;;;5075720;28;20026;-68
2022/08/20 11:32:25;;;;;;;11.73;2.58;;;17.70;61.70;;;;;;5068869;28;20127;-70
2022/08/20 11:34:51;;;;;;;13.68;2.78;;;17.70;61.40;;;;;;5067157;28;20048;-68
2022/08/20 11:37:21;;;;;;;6.10;2.70;;;17.60;61.00;;;;;;5066671;28;20036;-68
2022/08/20 11:39:47;;;;;;;10.48;2.40;;;17.60;61.80;;;;;;5067324;28;20024;-68
2022/08/20 11:42:14;;;;;;;7.05;2.45;;;17.60;61.70;;;;;;5070371;28;20017;-67
2022/08/20 11:44:41;;;;;;;11.00;2.83;;;17.60;61.10;;;;;;5066332;28;20020;-68
2022/08/20 11:47:10;;;;;;;6.07;2.10;;;17.60;61.20;;;;;;5066056;28;20025;-68
2022/08/20 11:49:37;;;;;;;7.75;3.67;;;17.60;61.20;;;;;;5069974;28;20080;-67
2022/08/20 11:52:04;;;;;;;7.93;2.65;;;17.50;61.10;;;;;;5069200;28;20098;-68
2022/08/20 11:54:32;;;;;;;12.23;3.75;;;17.50;61.80;;;;;;5068983;28;20107;-67
2022/08/20 11:56:59;;;;;;;16.38;2.88;;;17.50;62.30;;;;;;5065233;28;20714;-67
2022/08/20 11:59:27;;;;;;;13.02;3.38;;;17.50;62.70;;;;;;5071879;28;20016;-68
2022/08/20 12:01:54;;;;;;;15.63;4.07;;;17.50;63.40;;;;;;5066443;28;20099;-70
2022/08/20 12:04:21;;;;;;;9.52;2.92;;;17.50;64.20;;;;;;5070238;28;20040;-67
2022/08/20 12:06:48;;;;;;;12.65;3.15;;;17.40;64.90;;;;;;5073638;28;20039;-71
2022/08/20 12:09:14;;;;;;;17.75;3.35;;;17.40;64.90;;;;;;5069513;28;20012;-70
2022/08/20 12:11:41;;;;;;;10.07;3.28;;;17.40;65.00;;;;;;5066231;28;20044;-71
2022/08/20 12:14:07;;;;;;;13.75;4.03;;;17.40;65.30;;;;;;5063358;28;20539;-72
2022/08/20 12:16:34;;;;;;;13.70;3.67;;;17.40;65.20;;;;;;5066617;28;20032;-72
2022/08/20 12:19:00;;;;;;;12.55;3.92;;;17.40;65.50;;;;;;5064160;28;20039;-72
2022/08/20 12:21:27;;;;;;;8.82;2.90;;;17.40;65.20;;;;;;5069384;28;20046;-71
2022/08/20 12:23:53;;;;;;;5.75;3.10;;;17.40;65.30;;;;;;5064675;28;20025;-71
2022/08/20 12:26:20;;;;;;;14.25;2.95;;;17.40;65.20;;;;;;5067628;28;20016;-72
2022/08/20 12:28:46;;;;;;;8.35;2.58;;;17.40;65.50;;;;;;5066915;28;20090;-72
2022/08/20 12:31:13;;;;;;;10.98;2.70;;;17.50;65.60;;;;;;5068321;28;20028;-72
2022/08/20 12:33:39;;;;;;;8.68;2.53;;;17.60;66.00;;;;;;5065569;28;20024;-72
2022/08/20 12:36:06;;;;;;;9.73;2.47;;;17.60;66.20;;;;;;5067455;28;20020;-72
2022/08/20 12:38:32;;;;;;;7.55;2.28;;;17.70;65.80;;;;;;5066365;28;20118;-72
2022/08/20 12:40:59;;;;;;;7.07;2.47;;;17.70;64.80;;;;;;5062286;28;20020;-72
2022/08/20 12:43:26;;;;;;;8.38;2.35;;;17.70;63.90;;;;;;5068443;28;20051;-72
2022/08/20 12:45:52;;;;;;;12.95;2.90;;;17.70;63.70;;;;;;5068484;28;20020;-72
2022/08/20 12:48:19;;;;;;;7.63;2.50;;;17.70;64.10;;;;;;5066117;28;20463;-71
2022/08/20 12:50:48;;;;;;;20.80;2.45;;;17.70;64.30;;;;;;5065605;28;20144;-72
2022/08/20 12:53:15;;;;;;;18.17;2.70;;;17.70;65.10;;;;;;5069422;28;20017;-71
2022/08/20 12:55:41;;;;;;;10.95;2.42;;;17.80;65.30;;;;;;5063865;28;20103;-71
2022/08/20 12:58:09;;;;;;;11.35;6.15;;;17.90;65.60;;;;;;5064494;28;20039;-70
2022/08/20 13:00:40;;;;;;;25.67;7.13;;;17.90;65.40;;;;;;5062119;28;20507;-71